Time;durP1;ratioP1;P1;durP2;ratioP2;P2;SDS_P1;SDS_P2;PMS_P1;PMS_P2;Temp;Humidity;BMP_temperature;BMP_pressure;BME280_temperature;BME280_humidity;BME280_pressure;Samples;Min_cycle;Max_cycle;Signal;HPM_P1;HPM_P2
2021/07/19 00:00:42;;;;;;;29.17;24.83;;;22.30;95.70;;;;;;5056419;28;20029;-86
2021/07/19 00:03:08;;;;;;;32.33;25.65;;;22.30;95.80;;;;;;5039219;28;20036;-85
2021/07/19 00:05:33;;;;;;;34.85;26.25;;;22.30;95.90;;;;;;5058927;28;20036;-84
2021/07/19 00:07:59;;;;;;;28.35;25.00;;;22.30;95.90;;;;;;5039345;28;20059;-84
2021/07/19 00:10:26;;;;;;;27.73;21.90;;;22.30;95.80;;;;;;5055218;28;20105;-84
2021/07/19 00:12:52;;;;;;;34.25;25.38;;;22.20;95.70;;;;;;5038915;28;20493;-85
2021/07/19 00:15:25;;;;;;;26.73;23.50;;;22.20;95.60;;;;;;5061019;28;20028;-85
2021/07/19 00:17:52;;;;;;;31.10;24.25;;;22.10;95.70;;;;;;5069249;28;20550;-85
2021/07/19 00:20:19;;;;;;;32.38;25.00;;;22.00;95.60;;;;;;5072174;28;20047;-86
2021/07/19 00:22:45;;;;;;;32.03;25.42;;;22.00;95.80;;;;;;5081415;28;20055;-84
2021/07/19 00:25:13;;;;;;;32.90;26.02;;;22.00;95.50;;;;;;5054999;28;20025;-86
2021/07/19 00:27:41;;;;;;;29.75;24.92;;;22.00;95.50;;;;;;5058240;28;20043;-87
2021/07/19 00:30:10;;;;;;;31.85;24.17;;;22.00;95.40;;;;;;5038677;28;20436;-83
2021/07/19 00:32:36;;;;;;;34.40;24.95;;;22.00;95.20;;;;;;5036644;28;20559;-85
2021/07/19 00:35:03;;;;;;;31.17;24.30;;;22.00;95.10;;;;;;5054823;28;20423;-84
2021/07/19 00:37:29;;;;;;;30.13;24.45;;;22.10;95.00;;;;;;5054332;28;20028;-83
2021/07/19 00:39:55;;;;;;;30.02;23.63;;;22.10;95.00;;;;;;5037029;28;20486;-83
2021/07/19 00:42:21;;;;;;;32.42;25.33;;;22.20;94.90;;;;;;5047822;28;20032;-85
2021/07/19 00:44:47;;;;;;;30.00;23.75;;;22.20;94.70;;;;;;5059246;28;20016;-84
2021/07/19 00:47:15;;;;;;;31.23;25.73;;;22.30;94.60;;;;;;5041021;28;20029;-85
2021/07/19 00:49:43;;;;;;;31.40;25.77;;;22.30;94.60;;;;;;5056533;28;20104;-84
2021/07/19 00:52:10;;;;;;;33.83;24.40;;;22.30;94.40;;;;;;5056154;28;20025;-85
2021/07/19 00:54:38;;;;;;;28.83;24.73;;;22.20;94.30;;;;;;5058776;28;20485;-84
2021/07/19 00:57:06;;;;;;;27.00;23.80;;;22.20;94.30;;;;;;5038666;28;20065;-83
2021/07/19 00:59:34;;;;;;;29.00;25.20;;;22.10;94.40;;;;;;5037005;28;20075;-84
2021/07/19 01:02:03;;;;;;;32.50;25.48;;;22.10;94.80;;;;;;5057625;28;20020;-83
2021/07/19 01:04:32;;;;;;;28.85;23.60;;;22.00;94.70;;;;;;5058262;28;20028;-84
2021/07/19 01:07:01;;;;;;;29.67;26.50;;;22.00;94.80;;;;;;5055283;28;20017;-85
2021/07/19 01:09:31;;;;;;;30.35;24.70;;;22.00;94.70;;;;;;5055780;28;20047;-84
2021/07/19 01:11:58;;;;;;;35.60;24.63;;;22.00;94.80;;;;;;5054145;28;20046;-84
2021/07/19 01:14:28;;;;;;;32.53;25.83;;;21.90;94.90;;;;;;5035811;28;20020;-85
2021/07/19 01:16:54;;;;;;;27.05;23.58;;;21.80;95.30;;;;;;5054603;28;20029;-85
2021/07/19 01:19:27;;;;;;;30.98;25.48;;;21.80;95.40;;;;;;5053858;28;20017;-85
2021/07/19 01:22:11;;;;;;;27.00;21.75;;;21.80;95.50;;;;;;5066165;28;20020;-86
2021/07/19 01:24:53;;;;;;;28.23;21.85;;;21.80;95.50;;;;;;5035546;28;20203;-85
2021/07/19 01:27:37;;;;;;;29.40;21.70;;;21.70;95.80;;;;;;5051055;28;20033;-84
2021/07/19 01:30:06;;;;;;;28.08;22.15;;;21.80;95.80;;;;;;5053161;28;20032;-83
2021/07/19 01:32:35;;;;;;;28.08;23.00;;;21.70;95.90;;;;;;5055837;28;20074;-84
2021/07/19 01:35:03;;;;;;;32.00;24.00;;;21.80;96.00;;;;;;5055661;28;20063;-84
2021/07/19 01:37:30;;;;;;;28.25;23.50;;;21.80;96.00;;;;;;5038352;28;20455;-84
2021/07/19 01:39:57;;;;;;;29.42;21.88;;;21.80;95.90;;;;;;5040412;28;20028;-85
2021/07/19 01:42:23;;;;;;;26.20;21.58;;;21.80;95.80;;;;;;5054268;28;20025;-85
2021/07/19 01:44:50;;;;;;;24.17;21.38;;;21.70;95.80;;;;;;5053978;28;20378;-85
2021/07/19 01:47:16;;;;;;;29.77;21.60;;;21.70;95.90;;;;;;5053920;28;20029;-85
2021/07/19 01:49:43;;;;;;;25.05;21.02;;;21.60;96.10;;;;;;5054079;28;20139;-84
2021/07/19 01:52:11;;;;;;;26.23;22.35;;;21.60;96.10;;;;;;5054084;28;20111;-84
2021/07/19 01:54:38;;;;;;;26.17;20.38;;;21.70;96.10;;;;;;5052341;28;20020;-85
2021/07/19 01:57:05;;;;;;;28.65;22.60;;;21.70;96.20;;;;;;5057527;28;20032;-85
2021/07/19 01:59:31;;;;;;;27.73;21.63;;;21.70;96.10;;;;;;5054499;28;20047;-87
2021/07/19 02:01:57;;;;;;;30.67;22.58;;;21.80;96.00;;;;;;5054597;28;20039;-86
2021/07/19 02:04:23;;;;;;;28.70;22.92;;;21.90;96.30;;;;;;5054919;28;20380;-88
2021/07/19 02:06:50;;;;;;;27.77;20.25;;;21.90;95.80;;;;;;5035781;28;20029;-84
2021/07/19 02:09:17;;;;;;;24.77;20.60;;;22.10;95.60;;;;;;5035149;28;20025;-83
2021/07/19 02:11:45;;;;;;;23.17;19.90;;;22.20;95.40;;;;;;5053646;28;20470;-86
2021/07/19 02:14:13;;;;;;;23.98;20.48;;;22.30;95.20;;;;;;5054452;28;20104;-85
2021/07/19 02:16:44;;;;;;;26.15;20.58;;;22.50;94.80;;;;;;5053850;28;20512;-86
2021/07/19 02:19:10;;;;;;;25.77;20.50;;;22.60;94.40;;;;;;5054255;28;20025;-85
2021/07/19 02:21:37;;;;;;;28.42;19.48;;;22.80;94.10;;;;;;5053641;28;20051;-84
2021/07/19 02:24:05;;;;;;;28.77;19.33;;;22.90;93.80;;;;;;5056031;28;20013;-86
2021/07/19 02:26:31;;;;;;;22.13;18.48;;;23.00;93.50;;;;;;5053544;28;20421;-86
2021/07/19 02:28:57;;;;;;;23.88;19.33;;;23.10;93.50;;;;;;5053072;28;20447;-85
2021/07/19 02:31:24;;;;;;;24.40;19.77;;;23.20;92.90;;;;;;5064829;28;20493;-85
2021/07/19 02:33:51;;;;;;;23.20;19.83;;;23.20;92.70;;;;;;5037434;28;20111;-84
2021/07/19 02:36:18;;;;;;;27.60;20.42;;;23.20;92.50;;;;;;5036066;28;20060;-85
2021/07/19 02:38:48;;;;;;;25.65;19.90;;;23.20;92.60;;;;;;5035676;28;20036;-85
2021/07/19 02:41:17;;;;;;;27.67;20.85;;;23.20;92.30;;;;;;5036166;28;20079;-84
2021/07/19 02:43:45;;;;;;;30.50;20.67;;;23.20;92.40;;;;;;5040399;28;20045;-84
2021/07/19 02:46:11;;;;;;;34.15;21.77;;;23.10;92.50;;;;;;5054768;28;20025;-84
2021/07/19 02:48:40;;;;;;;29.73;20.70;;;23.00;92.60;;;;;;5074944;28;20029;-84
2021/07/19 02:51:09;;;;;;;29.88;22.23;;;23.00;92.80;;;;;;5074303;28;20025;-85
2021/07/19 02:53:36;;;;;;;25.25;20.92;;;23.00;92.70;;;;;;5054888;28;20382;-84
2021/07/19 02:56:04;;;;;;;22.80;20.08;;;23.00;92.70;;;;;;5053648;28;20040;-86
2021/07/19 02:58:30;;;;;;;22.08;19.23;;;23.00;92.80;;;;;;5035687;28;20535;-83
2021/07/19 03:00:58;;;;;;;24.50;19.67;;;23.00;92.80;;;;;;5052981;28;20120;-86
2021/07/19 03:03:27;;;;;;;24.25;19.42;;;23.00;92.60;;;;;;5053352;28;20101;-85
2021/07/19 03:06:07;;;;;;;26.00;20.20;;;23.00;92.80;;;;;;5050979;28;20028;-84
2021/07/19 03:08:35;;;;;;;23.83;20.17;;;23.00;92.70;;;;;;5053211;28;20056;-84
2021/07/19 03:11:07;;;;;;;27.88;21.35;;;23.10;92.60;;;;;;5053047;28;20063;-84
2021/07/19 03:13:34;;;;;;;31.52;20.30;;;23.10;92.70;;;;;;5035360;28;20027;-84
2021/07/19 03:16:01;;;;;;;30.20;19.65;;;23.10;92.50;;;;;;5052947;28;20025;-84
2021/07/19 03:18:27;;;;;;;19.60;17.48;;;23.20;92.30;;;;;;5052739;28;20481;-85
2021/07/19 03:20:55;;;;;;;21.38;18.35;;;23.20;92.40;;;;;;5053073;28;20102;-84
2021/07/19 03:23:25;;;;;;;20.17;16.13;;;23.30;92.20;;;;;;5054418;28;20105;-85
2021/07/19 03:25:52;;;;;;;24.58;17.05;;;23.30;92.10;;;;;;5053897;28;20025;-86
2021/07/19 03:28:20;;;;;;;20.60;15.68;;;23.40;92.10;;;;;;5054216;28;20021;-86
2021/07/19 03:30:47;;;;;;;;;;;23.50;91.90;;;;;;5051078;28;20063;-86
2021/07/19 03:33:14;;;;;;;20.17;16.85;;;23.50;91.80;;;;;;5041856;28;19912;-85
2021/07/19 03:35:40;;;;;;;21.17;16.77;;;23.50;91.70;;;;;;5057206;28;20071;-84
2021/07/19 03:38:07;;;;;;;23.88;16.92;;;23.50;91.60;;;;;;5056999;28;21121;-84
2021/07/19 03:40:35;;;;;;;21.10;15.60;;;23.50;91.60;;;;;;5040847;28;20036;-85
2021/07/19 03:43:02;;;;;;;21.83;15.77;;;23.60;91.50;;;;;;5039712;28;20472;-86
2021/07/19 03:45:29;;;;;;;23.40;15.63;;;23.60;91.50;;;;;;5043381;28;20017;-87
2021/07/19 03:47:56;;;;;;;23.38;16.63;;;23.70;91.40;;;;;;5043936;28;20017;-86
2021/07/19 03:50:22;;;;;;;;;;;23.80;91.00;;;;;;5068128;28;20041;-85
2021/07/19 03:52:50;;;;;;;17.98;15.45;;;23.80;91.10;;;;;;5043249;28;19976;-85
2021/07/19 03:55:17;;;;;;;21.15;15.57;;;23.80;91.10;;;;;;5041353;28;20021;-86
2021/07/19 03:57:45;;;;;;;19.55;14.68;;;23.80;90.90;;;;;;5028501;28;20017;-84
2021/07/19 04:00:14;;;;;;;18.42;14.45;;;23.80;90.90;;;;;;5056667;28;20120;-84
2021/07/19 04:02:42;;;;;;;24.65;16.38;;;23.90;90.90;;;;;;5037570;28;20028;-85
2021/07/19 04:05:11;;;;;;;22.83;15.93;;;23.90;90.90;;;;;;5056337;28;20021;-85
2021/07/19 04:07:38;;;;;;;18.23;15.55;;;23.90;90.80;;;;;;5055825;28;20025;-85
2021/07/19 04:10:10;;;;;;;23.70;16.52;;;23.90;90.50;;;;;;5056001;28;20033;-85
2021/07/19 04:12:37;;;;;;;25.88;16.25;;;23.80;90.70;;;;;;5038773;28;20029;-85
2021/07/19 04:15:04;;;;;;;23.73;16.63;;;23.80;90.90;;;;;;5059849;28;20367;-84
2021/07/19 04:17:31;;;;;;;19.70;14.90;;;23.70;91.00;;;;;;5066099;28;20025;-85
2021/07/19 04:19:59;;;;;;;19.70;14.43;;;23.90;91.00;;;;;;5064558;28;20037;-84
2021/07/19 04:22:26;;;;;;;18.90;15.23;;;24.10;90.60;;;;;;5048326;28;20258;-85
2021/07/19 04:24:52;;;;;;;17.83;14.02;;;24.30;90.30;;;;;;5041950;28;20029;-86
2021/07/19 04:27:18;;;;;;;17.00;14.47;;;24.40;89.80;;;;;;5056942;28;20021;-86
2021/07/19 04:29:52;;;;;;;19.50;14.18;;;24.70;89.10;;;;;;5038711;28;20105;-85
2021/07/19 04:32:19;;;;;;;20.77;14.27;;;25.00;87.40;;;;;;5056429;28;20036;-86
2021/07/19 04:34:46;;;;;;;16.27;14.10;;;25.30;86.30;;;;;;5038776;28;20033;-85
2021/07/19 04:37:12;;;;;;;16.50;12.93;;;25.60;85.10;;;;;;5037443;28;20032;-84
2021/07/19 04:39:40;;;;;;;17.67;15.15;;;25.50;84.40;;;;;;5045906;28;20198;-86
2021/07/19 04:42:06;;;;;;;18.38;14.27;;;25.50;83.90;;;;;;5038408;28;20028;-86
2021/07/19 04:44:33;;;;;;;20.80;13.32;;;25.50;83.80;;;;;;5066117;28;20033;-86
2021/07/19 04:46:59;;;;;;;18.88;13.45;;;25.30;84.10;;;;;;5055883;28;20096;-86
2021/07/19 04:49:29;;;;;;;19.38;13.13;;;25.30;84.70;;;;;;5055929;28;20025;-85
2021/07/19 04:51:55;;;;;;;16.83;12.55;;;25.20;84.50;;;;;;5055113;28;20449;-87
2021/07/19 04:54:29;;;;;;;15.88;13.13;;;25.10;85.10;;;;;;5058458;28;20025;-85
2021/07/19 04:56:59;;;;;;;17.13;12.98;;;25.00;85.80;;;;;;5055618;28;20115;-85
2021/07/19 04:59:29;;;;;;;18.67;14.48;;;25.00;85.60;;;;;;5037216;28;20079;-83
2021/07/19 05:01:57;;;;;;;16.73;14.35;;;25.00;85.50;;;;;;5047862;28;20026;-83
2021/07/19 05:04:25;;;;;;;18.55;13.07;;;25.00;85.50;;;;;;5064979;28;20028;-84
2021/07/19 05:06:54;;;;;;;19.67;14.77;;;25.10;85.30;;;;;;5056080;28;20021;-84
2021/07/19 05:09:21;;;;;;;17.60;12.63;;;25.10;85.00;;;;;;5069914;28;20024;-85
2021/07/19 05:11:47;;;;;;;15.77;12.10;;;25.10;85.00;;;;;;5061519;28;20005;-86
2021/07/19 05:14:14;;;;;;;18.38;13.70;;;25.30;85.00;;;;;;5059052;28;20060;-88
2021/07/19 05:16:40;;;;;;;17.17;14.63;;;25.60;83.70;;;;;;5079237;28;20036;-90
2021/07/19 05:19:07;;;;;;;17.97;13.40;;;25.80;82.80;;;;;;5068898;28;20024;-87
2021/07/19 05:21:37;;;;;;;15.48;12.35;;;26.40;82.40;;;;;;5038367;28;20513;-83
2021/07/19 05:24:04;;;;;;;16.88;12.57;;;27.20;79.20;;;;;;5054763;28;20043;-84
2021/07/19 05:26:32;;;;;;;17.00;12.75;;;27.80;76.40;;;;;;5057768;28;20070;-83
2021/07/19 05:28:59;;;;;;;13.18;10.88;;;28.40;74.10;;;;;;5049703;28;20087;-82
2021/07/19 05:31:26;;;;;;;13.45;10.98;;;28.80;72.00;;;;;;5054465;28;20021;-84
2021/07/19 05:33:52;;;;;;;14.50;12.30;;;29.20;70.90;;;;;;5045603;28;20378;-88
2021/07/19 05:36:18;;;;;;;15.73;11.57;;;29.60;69.90;;;;;;5054409;28;20029;-87
2021/07/19 05:38:44;;;;;;;17.40;11.33;;;30.00;67.80;;;;;;5059584;28;20059;-85
2021/07/19 05:41:11;;;;;;;14.43;12.33;;;30.70;66.20;;;;;;5053449;28;20051;-85
2021/07/19 05:43:37;;;;;;;15.65;11.90;;;31.50;63.70;;;;;;5053568;28;20262;-84
2021/07/19 05:46:04;;;;;;;20.33;11.07;;;32.10;61.70;;;;;;5053427;28;20485;-86
2021/07/19 05:48:30;;;;;;;13.15;10.27;;;32.30;60.50;;;;;;5054842;28;20017;-85
2021/07/19 05:50:57;;;;;;;13.17;10.03;;;32.40;59.40;;;;;;5053540;28;20454;-84
2021/07/19 05:53:23;;;;;;;15.98;10.23;;;32.30;59.90;;;;;;5037238;28;20029;-86
2021/07/19 05:55:52;;;;;;;14.68;9.80;;;;;;;;;;5037168;28;20127;-84
2021/07/19 05:58:18;;;;;;;11.98;9.05;;;33.10;58.00;;;;;;5048216;28;20097;-84
2021/07/19 06:00:44;;;;;;;11.82;9.57;;;33.20;56.80;;;;;;5032673;28;20120;-86
2021/07/19 06:03:11;;;;;;;12.88;9.50;;;33.80;55.50;;;;;;5056882;28;20094;-84
2021/07/19 06:05:37;;;;;;;10.10;8.75;;;34.20;53.70;;;;;;5057477;28;20025;-83
2021/07/19 06:08:04;;;;;;;13.25;10.20;;;34.50;53.10;;;;;;5043379;28;20044;-85
2021/07/19 06:10:30;;;;;;;11.70;8.98;;;35.00;52.00;;;;;;5047437;28;20423;-84
2021/07/19 06:12:56;;;;;;;13.18;9.20;;;35.50;51.30;;;;;;5036420;28;20029;-84
2021/07/19 06:15:22;;;;;;;10.37;8.83;;;36.50;49.60;;;;;;5035784;28;20059;-87
2021/07/19 06:17:48;;;;;;;12.50;9.98;;;37.00;48.50;;;;;;5053273;28;20017;-84
2021/07/19 06:20:20;;;;;;;11.00;9.68;;;37.00;47.50;;;;;;5053776;28;20059;-85
2021/07/19 06:22:47;;;;;;;13.77;10.07;;;36.90;47.20;;;;;;5035701;28;20154;-86
2021/07/19 06:25:14;;;;;;;12.40;10.32;;;36.00;48.30;;;;;;5053192;28;20027;-84
2021/07/19 06:27:42;;;;;;;16.85;10.55;;;35.50;49.50;;;;;;5053161;28;20032;-85
2021/07/19 06:30:10;;;;;;;13.35;9.50;;;35.20;50.10;;;;;;5034913;28;20073;-85
2021/07/19 06:32:36;;;;;;;13.57;9.85;;;35.70;50.00;;;;;;5036531;28;20037;-85
2021/07/19 06:35:04;;;;;;;14.52;9.57;;;36.00;49.40;;;;;;5054841;28;20378;-84
2021/07/19 06:37:29;;;;;;;13.18;10.88;;;36.10;48.20;;;;;;5059871;28;20029;-85
2021/07/19 06:39:55;;;;;;;11.60;9.83;;;35.30;48.80;;;;;;5037614;28;20510;-84
2021/07/19 06:42:23;;;;;;;12.77;9.90;;;34.70;50.40;;;;;;5053260;28;20028;-85
2021/07/19 06:44:53;;;;;;;13.45;9.68;;;34.30;51.60;;;;;;5054798;28;20408;-85
2021/07/19 06:47:22;;;;;;;10.85;9.65;;;34.10;52.40;;;;;;5053641;28;20017;-87
2021/07/19 06:49:48;;;;;;;11.90;9.70;;;34.50;52.00;;;;;;5036493;28;20032;-84
2021/07/19 06:52:14;;;;;;;13.70;9.60;;;35.30;50.50;;;;;;5054231;28;20031;-86
2021/07/19 06:54:40;;;;;;;14.55;10.63;;;35.90;49.10;;;;;;5055814;28;20036;-85
2021/07/19 06:57:06;;;;;;;12.23;9.52;;;36.50;47.90;;;;;;5055390;28;20036;-85
2021/07/19 06:59:32;;;;;;;10.90;9.45;;;37.40;46.70;;;;;;5057560;28;20045;-86
2021/07/19 07:01:58;;;;;;;11.95;9.80;;;38.60;45.50;;;;;;5057515;28;20542;-84
2021/07/19 07:04:24;;;;;;;10.75;9.00;;;39.50;43.00;;;;;;5056980;28;20029;-85
2021/07/19 07:06:50;;;;;;;11.85;9.73;;;38.90;42.90;;;;;;5057208;28;20032;-83
2021/07/19 07:09:20;;;;;;;15.80;9.48;;;37.60;44.10;;;;;;5057336;28;20028;-85
2021/07/19 07:11:46;;;;;;;13.07;10.02;;;36.60;45.90;;;;;;5038952;28;20123;-85
2021/07/19 07:14:12;;;;;;;11.17;9.27;;;34.90;48.30;;;;;;5056616;28;20114;-84
2021/07/19 07:16:37;;;;;;;14.17;10.23;;;33.80;51.20;;;;;;5056250;28;20025;-84
2021/07/19 07:19:04;;;;;;;12.47;10.20;;;33.70;52.60;;;;;;5056909;28;20029;-85
2021/07/19 07:21:33;;;;;;;11.05;8.98;;;33.90;52.30;;;;;;5038643;28;20099;-85
2021/07/19 07:23:59;;;;;;;10.90;9.82;;;34.20;51.40;;;;;;5056857;28;20052;-84
2021/07/19 07:26:26;;;;;;;11.68;10.02;;;33.60;51.90;;;;;;5057087;28;20032;-86
2021/07/19 07:28:53;;;;;;;11.35;9.48;;;32.90;54.00;;;;;;5057017;28;20107;-85
2021/07/19 07:31:19;;;;;;;10.38;9.32;;;33.00;54.30;;;;;;5039956;28;20351;-85
2021/07/19 07:33:45;;;;;;;13.87;9.60;;;34.10;53.20;;;;;;5056908;28;20039;-86
2021/07/19 07:36:12;;;;;;;13.70;9.30;;;35.30;50.20;;;;;;5056441;28;20272;-85
2021/07/19 07:38:38;;;;;;;10.50;8.50;;;36.40;48.10;;;;;;5056971;28;20055;-87
2021/07/19 07:41:04;;;;;;;9.55;8.02;;;37.10;45.80;;;;;;5059489;28;20029;-84
2021/07/19 07:43:30;;;;;;;9.55;7.65;;;37.90;44.30;;;;;;5074648;28;20387;-85
2021/07/19 07:45:55;;;;;;;7.68;7.07;;;38.70;41.70;;;;;;5057404;28;20021;-85
2021/07/19 07:48:21;;;;;;;10.13;8.93;;;37.80;42.40;;;;;;5072969;28;20025;-85
2021/07/19 07:50:47;;;;;;;9.38;7.43;;;38.60;42.40;;;;;;5056331;28;20124;-85
2021/07/19 07:53:13;;;;;;;8.32;7.50;;;39.70;40.20;;;;;;5056503;28;20482;-87
2021/07/19 07:55:39;;;;;;;9.63;7.05;;;39.90;39.80;;;;;;5056462;28;20029;-86
2021/07/19 07:58:08;;;;;;;8.13;7.20;;;40.80;39.30;;;;;;5046611;28;20018;-85
2021/07/19 08:00:34;;;;;;;8.57;7.63;;;42.30;37.60;;;;;;5053093;28;20123;-85
2021/07/19 08:03:00;;;;;;;;;;;42.70;36.40;;;;;;5056178;28;20025;-85
2021/07/19 08:05:26;;;;;;;10.00;8.00;;;43.20;37.30;;;;;;5056067;28;20270;-85
2021/07/19 08:07:52;;;;;;;10.00;7.80;;;41.70;36.80;;;;;;5055688;28;20051;-85
2021/07/19 08:10:21;;;;;;;8.82;7.80;;;40.60;38.10;;;;;;5055472;28;20478;-87
2021/07/19 08:12:48;;;;;;;12.35;8.00;;;40.70;38.60;;;;;;5054986;28;20024;-84
2021/07/19 08:15:15;;;;;;;9.48;6.85;;;41.30;37.60;;;;;;5055658;28;20033;-85
2021/07/19 08:17:42;;;;;;;10.57;7.70;;;42.00;36.50;;;;;;5056628;28;20031;-86
2021/07/19 08:20:12;;;;;;;10.93;7.57;;;42.10;36.70;;;;;;5055992;28;20073;-86
2021/07/19 08:22:38;;;;;;;8.43;7.03;;;42.50;35.90;;;;;;5055951;28;20456;-85
2021/07/19 08:25:04;;;;;;;8.70;6.88;;;43.00;35.70;;;;;;5055899;28;20032;-86
2021/07/19 08:27:30;;;;;;;12.02;7.10;;;43.90;35.00;;;;;;5038578;28;20372;-83
2021/07/19 08:29:56;;;;;;;10.88;7.03;;;44.60;33.40;;;;;;5055736;28;20102;-86
2021/07/19 08:32:22;;;;;;;8.40;6.55;;;44.80;33.20;;;;;;5056321;28;20387;-85
2021/07/19 08:34:48;;;;;;;10.75;6.53;;;44.90;32.70;;;;;;5055817;28;20017;-85
2021/07/19 08:37:15;;;;;;;12.02;7.20;;;45.50;32.40;;;;;;5055226;28;20018;-85
2021/07/19 08:39:42;;;;;;;11.98;7.93;;;45.80;32.40;;;;;;5055061;28;20470;-84
2021/07/19 08:42:12;;;;;;;13.75;7.55;;;44.80;33.00;;;;;;5061356;28;20029;-86
2021/07/19 08:44:39;;;;;;;9.52;7.28;;;44.20;32.40;;;;;;5047167;28;20163;-85
2021/07/19 08:47:10;;;;;;;8.02;6.25;;;43.30;33.00;;;;;;5055750;28;20017;-86
2021/07/19 08:49:36;;;;;;;11.32;7.35;;;42.50;33.10;;;;;;5056028;28;20025;-85
2021/07/19 08:52:03;;;;;;;8.93;7.45;;;42.30;33.60;;;;;;5054168;28;20118;-85
2021/07/19 08:54:33;;;;;;;9.77;7.32;;;42.50;33.70;;;;;;5054690;28;20021;-84
2021/07/19 08:57:04;;;;;;;12.90;6.25;;;41.70;34.40;;;;;;5043548;28;20032;-87
2021/07/19 08:59:30;;;;;;;8.23;6.82;;;41.00;33.80;;;;;;5055254;28;20025;-85
2021/07/19 09:02:00;;;;;;;7.25;6.43;;;41.10;33.90;;;;;;5056454;28;20366;-85
2021/07/19 09:04:27;;;;;;;10.13;5.97;;;41.50;33.90;;;;;;5057452;28;20029;-83
2021/07/19 09:06:54;;;;;;;8.48;6.32;;;41.70;33.00;;;;;;5070255;28;20047;-86
2021/07/19 09:09:29;;;;;;;7.93;6.18;;;41.80;32.50;;;;;;5070169;28;20025;-85
2021/07/19 09:11:56;;;;;;;10.38;6.60;;;42.40;32.80;;;;;;5073138;28;20060;-85
2021/07/19 09:14:22;;;;;;;10.25;6.32;;;43.00;32.60;;;;;;5055318;28;20017;-86
2021/07/19 09:16:50;;;;;;;10.75;6.72;;;43.70;32.40;;;;;;5037607;28;20021;-86
2021/07/19 09:19:22;;;;;;;7.97;6.28;;;43.90;31.50;;;;;;5055047;28;20099;-86
2021/07/19 09:21:50;;;;;;;11.50;6.68;;;44.50;31.20;;;;;;5041052;28;20048;-85
2021/07/19 09:24:21;;;;;;;11.57;6.90;;;44.30;31.10;;;;;;5045646;28;20028;-85
2021/07/19 09:26:49;;;;;;;7.65;6.50;;;44.20;31.30;;;;;;5037794;28;20101;-85
2021/07/19 09:29:18;;;;;;;6.75;6.10;;;44.20;31.10;;;;;;5034430;28;20018;-84
2021/07/19 09:31:46;;;;;;;11.00;6.78;;;;;;;;;;5037547;28;20033;-86
2021/07/19 09:34:15;;;;;;;8.50;6.32;;;45.40;30.60;;;;;;5040625;28;20021;-84
2021/07/19 09:36:57;;;;;;;7.22;5.90;;;45.30;30.00;;;;;;5036380;28;20033;-86
2021/07/19 09:39:24;;;;;;;10.68;6.55;;;44.80;29.50;;;;;;5033726;28;20407;-86
2021/07/19 09:41:51;;;;;;;9.40;6.85;;;44.40;30.40;;;;;;5035031;28;20021;-84
2021/07/19 09:44:17;;;;;;;6.93;6.32;;;45.00;30.10;;;;;;5034766;28;20108;-84
2021/07/19 09:46:42;;;;;;;8.15;6.13;;;45.90;29.50;;;;;;5033978;28;20022;-86
2021/07/19 09:49:09;;;;;;;6.82;6.13;;;46.10;29.20;;;;;;5032747;28;20028;-86
2021/07/19 09:51:36;;;;;;;8.00;6.22;;;46.20;29.10;;;;;;5045797;28;20080;-87
2021/07/19 09:54:09;;;;;;;7.35;6.60;;;46.10;29.00;;;;;;5040157;28;20028;-87
2021/07/19 09:56:35;;;;;;;7.93;6.13;;;45.40;29.70;;;;;;5037501;28;20439;-87
2021/07/19 09:59:09;;;;;;;8.65;7.75;;;44.60;29.00;;;;;;5048738;28;20091;-87
2021/07/19 10:01:44;;;;;;;8.23;6.32;;;44.30;29.70;;;;;;5033937;28;20020;-86
2021/07/19 10:04:12;;;;;;;7.20;6.25;;;44.40;29.70;;;;;;5034686;28;20100;-85
2021/07/19 10:06:42;;;;;;;8.88;6.50;;;44.60;30.00;;;;;;5039071;28;20048;-85
2021/07/19 10:09:13;;;;;;;6.57;5.97;;;44.90;29.70;;;;;;5036588;28;20044;-87
2021/07/19 10:11:47;;;;;;;8.45;6.13;;;44.90;29.50;;;;;;5043490;28;20045;-85
2021/07/19 10:14:22;;;;;;;7.88;6.47;;;44.40;29.70;;;;;;5058109;28;20025;-85
2021/07/19 10:16:49;;;;;;;;;;;43.70;29.90;;;;;;5040528;28;20014;-85
2021/07/19 10:19:15;;;;;;;6.28;5.30;;;43.80;31.00;;;;;;5048232;28;19905;-84
2021/07/19 10:21:41;;;;;;;6.03;5.43;;;42.80;30.30;;;;;;5053905;28;20103;-85
2021/07/19 10:24:09;;;;;;;9.27;5.63;;;42.50;30.30;;;;;;5053593;28;20051;-86
2021/07/19 10:26:36;;;;;;;8.45;5.68;;;42.50;30.50;;;;;;5068224;28;20028;-86
2021/07/19 10:29:04;;;;;;;8.80;5.43;;;43.00;30.40;;;;;;5036426;28;20048;-87
2021/07/19 10:31:31;;;;;;;7.47;5.70;;;43.50;29.80;;;;;;5054214;28;20035;-85
2021/07/19 10:34:00;;;;;;;5.95;5.38;;;42.70;29.60;;;;;;5036321;28;20029;-84
2021/07/19 10:36:45;;;;;;;12.68;6.38;;;41.50;30.60;;;;;;5036855;28;20025;-85
2021/07/19 10:39:19;;;;;;;9.60;6.40;;;39.80;32.10;;;;;;5040080;28;20502;-86
2021/07/19 10:41:45;;;;;;;6.88;5.38;;;38.30;33.70;;;;;;5058783;28;20032;-88
2021/07/19 10:44:18;;;;;;;8.30;5.97;;;37.10;34.50;;;;;;5060787;28;20031;-85
2021/07/19 10:46:44;;;;;;;8.18;6.05;;;35.80;35.30;;;;;;5040716;28;20082;-85
2021/07/19 10:49:14;;;;;;;10.97;8.40;;;34.70;36.10;;;;;;5057325;28;20100;-87
2021/07/19 10:51:48;;;;;;;9.73;6.53;;;34.10;38.30;;;;;;5039648;28;20071;-85
2021/07/19 10:54:23;;;;;;;9.05;6.75;;;33.70;38.50;;;;;;5032834;28;20036;-83
2021/07/19 10:56:53;;;;;;;7.68;6.13;;;33.50;39.10;;;;;;5057702;28;20025;-88
2021/07/19 10:59:27;;;;;;;8.10;5.80;;;33.20;39.50;;;;;;5039737;28;20025;-87
2021/07/19 11:01:57;;;;;;;7.60;5.97;;;32.90;40.30;;;;;;5057696;28;20032;-85
2021/07/19 11:04:24;;;;;;;7.82;5.53;;;32.70;40.00;;;;;;5057385;28;20464;-85
2021/07/19 11:06:58;;;;;;;7.25;6.55;;;32.20;40.40;;;;;;5039164;28;20052;-85
2021/07/19 11:09:38;;;;;;;8.90;6.50;;;31.70;41.10;;;;;;5057487;28;20033;-83
2021/07/19 11:12:13;;;;;;;8.77;6.75;;;31.40;41.00;;;;;;5057086;28;20044;-86
2021/07/19 11:14:55;;;;;;;7.25;6.07;;;31.10;41.20;;;;;;5057219;28;20017;-86
2021/07/19 11:17:28;;;;;;;13.77;6.53;;;30.90;41.50;;;;;;5059440;28;20021;-84
2021/07/19 11:19:56;;;;;;;10.30;6.32;;;30.70;43.00;;;;;;5040578;28;20068;-84
2021/07/19 11:22:27;;;;;;;8.43;5.78;;;30.70;43.40;;;;;;5060531;28;20028;-84
2021/07/19 11:25:07;;;;;;;8.13;5.38;;;30.70;43.80;;;;;;5043444;28;20025;-85
2021/07/19 11:27:38;;;;;;;7.90;5.55;;;30.80;42.20;;;;;;5056979;28;20421;-86
2021/07/19 11:30:04;;;;;;;5.65;4.88;;;30.80;42.30;;;;;;5038047;28;20037;-84
2021/07/19 11:32:37;;;;;;;8.23;5.30;;;30.70;41.80;;;;;;5056278;28;20023;-85
2021/07/19 11:35:11;;;;;;;5.75;4.93;;;30.70;41.80;;;;;;5056236;28;20374;-86
2021/07/19 11:37:44;;;;;;;8.48;5.55;;;30.60;42.50;;;;;;5060362;28;20044;-83
2021/07/19 11:40:12;;;;;;;6.18;5.57;;;30.50;42.30;;;;;;5063387;28;20153;-86
2021/07/19 11:42:44;;;;;;;7.38;5.53;;;30.50;42.50;;;;;;5057612;28;20420;-87
2021/07/19 11:45:16;;;;;;;8.13;5.32;;;30.50;43.00;;;;;;5057467;28;20390;-86
2021/07/19 11:47:51;;;;;;;5.75;5.25;;;30.40;43.50;;;;;;5056474;28;20371;-85
2021/07/19 11:50:19;;;;;;;7.30;5.80;;;30.20;43.90;;;;;;5055808;28;20490;-86
2021/07/19 11:52:47;;;;;;;11.35;6.47;;;30.10;43.60;;;;;;5052383;28;20017;-85
2021/07/19 11:55:16;;;;;;;7.38;5.15;;;30.00;43.60;;;;;;5056556;28;20033;-84
2021/07/19 11:57:50;;;;;;;7.80;5.97;;;30.00;43.10;;;;;;5069463;28;20110;-85
2021/07/19 12:00:41;;;;;;;7.53;5.82;;;30.00;44.00;;;;;;5057394;28;20099;-86
2021/07/19 12:03:15;;;;;;;8.38;5.22;;;30.10;44.40;;;;;;5056527;28;20115;-84
2021/07/19 12:05:55;;;;;;;10.45;6.28;;;30.20;44.50;;;;;;5069177;28;20044;-84
2021/07/19 12:08:36;;;;;;;7.00;5.10;;;30.40;44.00;;;;;;5043202;28;20364;-84
2021/07/19 12:11:05;;;;;;;8.05;5.60;;;30.40;43.30;;;;;;5058557;28;20087;-85
2021/07/19 12:13:37;;;;;;;7.40;6.07;;;30.30;43.70;;;;;;5059593;28;20604;-85
2021/07/19 12:16:03;;;;;;;8.18;6.20;;;30.10;43.70;;;;;;5046996;28;20105;-84
2021/07/19 12:18:30;;;;;;;7.40;6.23;;;30.00;44.40;;;;;;5065961;28;20073;-84
2021/07/19 12:21:05;;;;;;;7.45;6.03;;;29.90;44.80;;;;;;5058468;28;20459;-85
2021/07/19 12:23:49;;;;;;;7.22;6.53;;;29.80;45.20;;;;;;5070615;28;20021;-85
2021/07/19 12:26:21;;;;;;;7.28;5.47;;;29.80;45.00;;;;;;5069992;28;20020;-84
2021/07/19 12:29:00;;;;;;;7.82;5.38;;;29.80;44.10;;;;;;5055904;28;20052;-86
2021/07/19 12:31:30;;;;;;;8.40;5.70;;;29.80;42.00;;;;;;5055736;28;20033;-87
2021/07/19 12:34:15;;;;;;;7.10;5.43;;;29.80;42.50;;;;;;5039953;28;20359;-87
2021/07/19 12:36:51;;;;;;;6.88;5.88;;;29.80;42.70;;;;;;5056354;28;20083;-85
2021/07/19 12:39:20;;;;;;;6.05;5.45;;;29.80;43.20;;;;;;5055996;28;20031;-86
2021/07/19 12:41:50;;;;;;;8.88;5.65;;;29.80;43.40;;;;;;5070277;28;20020;-85